sensor_id;sensor_type;location;lat;lon;timestamp;P1;durP1;ratioP1;P2;durP2;ratioP2
46282;SDS011;32017;43.700;11.820;2023-04-01T00:00:51;7.38;;;6.68;;
46282;SDS011;32017;43.700;11.820;2023-04-01T00:03:12;5.72;;;5.63;;
46282;SDS011;32017;43.700;11.820;2023-04-01T00:05:32;6.15;;;5.88;;
46282;SDS011;32017;43.700;11.820;2023-04-01T00:07:53;6.88;;;6.00;;
46282;SDS011;32017;43.700;11.820;2023-04-01T00:10:13;6.20;;;6.07;;
46282;SDS011;32017;43.700;11.820;2023-04-01T00:12:34;6.75;;;6.40;;
46282;SDS011;32017;43.700;11.820;2023-04-01T00:14:54;5.55;;;5.45;;
46282;SDS011;32017;43.700;11.820;2023-04-01T00:17:14;6.07;;;5.95;;
46282;SDS011;32017;43.700;11.820;2023-04-01T00:19:35;6.28;;;6.07;;
46282;SDS011;32017;43.700;11.820;2023-04-01T00:21:56;4.90;;;4.80;;
46282;SDS011;32017;43.700;11.820;2023-04-01T00:24:16;4.43;;;4.43;;
46282;SDS011;32017;43.700;11.820;2023-04-01T00:26:36;5.32;;;4.93;;
46282;SDS011;32017;43.700;11.820;2023-04-01T00:28:56;5.78;;;5.32;;
46282;SDS011;32017;43.700;11.820;2023-04-01T00:31:16;5.35;;;4.88;;
46282;SDS011;32017;43.700;11.820;2023-04-01T00:33:37;6.25;;;6.00;;
46282;SDS011;32017;43.700;11.820;2023-04-01T00:36:05;5.85;;;5.75;;
46282;SDS011;32017;43.700;11.820;2023-04-01T00:38:25;5.40;;;5.30;;
46282;SDS011;32017;43.700;11.820;2023-04-01T00:40:45;6.40;;;6.07;;
46282;SDS011;32017;43.700;11.820;2023-04-01T00:43:17;6.32;;;6.22;;
46282;SDS011;32017;43.700;11.820;2023-04-01T00:45:39;5.38;;;5.18;;
46282;SDS011;32017;43.700;11.820;2023-04-01T00:48:01;5.50;;;5.40;;
46282;SDS011;32017;43.700;11.820;2023-04-01T00:50:22;5.88;;;5.78;;
46282;SDS011;32017;43.700;11.820;2023-04-01T00:52:43;6.03;;;5.78;;
46282;SDS011;32017;43.700;11.820;2023-04-01T00:55:04;5.75;;;5.38;;
46282;SDS011;32017;43.700;11.820;2023-04-01T00:57:29;6.55;;;6.40;;
46282;SDS011;32017;43.700;11.820;2023-04-01T00:59:51;6.38;;;6.25;;
46282;SDS011;32017;43.700;11.820;2023-04-01T01:02:12;6.20;;;6.10;;
46282;SDS011;32017;43.700;11.820;2023-04-01T01:04:33;6.25;;;5.88;;
46282;SDS011;32017;43.700;11.820;2023-04-01T01:18:47;5.95;;;5.78;;
46282;SDS011;32017;43.700;11.820;2023-04-01T01:21:30;7.85;;;7.55;;
46282;SDS011;32017;43.700;11.820;2023-04-01T01:29:14;5.97;;;5.88;;
46282;SDS011;32017;43.700;11.820;2023-04-01T01:34:11;7.28;;;7.05;;
46282;SDS011;32017;43.700;11.820;2023-04-01T01:36:36;6.60;;;6.40;;
46282;SDS011;32017;43.700;11.820;2023-04-01T01:38:57;7.45;;;7.28;;
46282;SDS011;32017;43.700;11.820;2023-04-01T01:41:18;5.95;;;5.75;;
46282;SDS011;32017;43.700;11.820;2023-04-01T01:43:42;7.05;;;6.95;;
46282;SDS011;32017;43.700;11.820;2023-04-01T01:46:05;7.18;;;6.88;;
46282;SDS011;32017;43.700;11.820;2023-04-01T01:48:26;5.60;;;5.43;;
46282;SDS011;32017;43.700;11.820;2023-04-01T01:50:47;6.93;;;6.72;;
46282;SDS011;32017;43.700;11.820;2023-04-01T01:53:09;6.55;;;6.25;;
46282;SDS011;32017;43.700;11.820;2023-04-01T01:55:34;7.25;;;7.05;;
46282;SDS011;32017;43.700;11.820;2023-04-01T01:57:55;5.97;;;5.88;;
46282;SDS011;32017;43.700;11.820;2023-04-01T02:00:17;7.00;;;6.67;;
46282;SDS011;32017;43.700;11.820;2023-04-01T02:02:41;6.85;;;6.57;;
46282;SDS011;32017;43.700;11.820;2023-04-01T02:05:04;6.40;;;6.22;;
46282;SDS011;32017;43.700;11.820;2023-04-01T02:07:26;6.45;;;6.10;;
46282;SDS011;32017;43.700;11.820;2023-04-01T02:09:48;6.65;;;6.22;;
46282;SDS011;32017;43.700;11.820;2023-04-01T02:12:10;7.53;;;7.15;;
46282;SDS011;32017;43.700;11.820;2023-04-01T02:14:53;7.13;;;6.83;;
46282;SDS011;32017;43.700;11.820;2023-04-01T02:17:14;6.30;;;6.10;;
46282;SDS011;32017;43.700;11.820;2023-04-01T02:19:37;7.82;;;7.45;;
46282;SDS011;32017;43.700;11.820;2023-04-01T02:21:59;7.00;;;6.63;;
46282;SDS011;32017;43.700;11.820;2023-04-01T02:24:20;7.03;;;6.73;;
46282;SDS011;32017;43.700;11.820;2023-04-01T02:26:43;7.75;;;7.65;;
46282;SDS011;32017;43.700;11.820;2023-04-01T02:29:06;7.00;;;6.72;;
46282;SDS011;32017;43.700;11.820;2023-04-01T02:31:28;6.95;;;6.55;;
46282;SDS011;32017;43.700;11.820;2023-04-01T02:33:48;14.43;;;8.43;;
46282;SDS011;32017;43.700;11.820;2023-04-01T02:36:15;6.70;;;6.32;;
46282;SDS011;32017;43.700;11.820;2023-04-01T02:38:36;7.90;;;7.53;;
46282;SDS011;32017;43.700;11.820;2023-04-01T02:40:59;8.93;;;8.48;;
46282;SDS011;32017;43.700;11.820;2023-04-01T02:43:20;7.82;;;7.50;;
46282;SDS011;32017;43.700;11.820;2023-04-01T02:45:40;6.28;;;6.05;;
46282;SDS011;32017;43.700;11.820;2023-04-01T02:48:00;7.82;;;7.28;;
46282;SDS011;32017;43.700;11.820;2023-04-01T02:50:20;8.05;;;7.63;;
46282;SDS011;32017;43.700;11.820;2023-04-01T02:52:41;7.82;;;7.55;;
46282;SDS011;32017;43.700;11.820;2023-04-01T02:55:01;7.53;;;7.32;;
46282;SDS011;32017;43.700;11.820;2023-04-01T02:57:22;7.45;;;7.13;;
46282;SDS011;32017;43.700;11.820;2023-04-01T02:59:42;8.25;;;8.02;;
46282;SDS011;32017;43.700;11.820;2023-04-01T03:02:03;8.27;;;7.85;;
46282;SDS011;32017;43.700;11.820;2023-04-01T03:04:23;7.70;;;7.47;;
46282;SDS011;32017;43.700;11.820;2023-04-01T03:06:44;7.45;;;7.25;;
46282;SDS011;32017;43.700;11.820;2023-04-01T03:09:04;7.18;;;6.95;;
46282;SDS011;32017;43.700;11.820;2023-04-01T03:11:24;7.70;;;7.47;;
46282;SDS011;32017;43.700;11.820;2023-04-01T03:13:45;7.47;;;7.35;;
46282;SDS011;32017;43.700;11.820;2023-04-01T03:16:06;7.57;;;7.47;;
46282;SDS011;32017;43.700;11.820;2023-04-01T03:18:26;8.05;;;7.88;;
46282;SDS011;32017;43.700;11.820;2023-04-01T03:20:47;6.80;;;6.70;;
46282;SDS011;32017;43.700;11.820;2023-04-01T03:23:07;7.53;;;7.30;;
46282;SDS011;32017;43.700;11.820;2023-04-01T03:25:27;7.28;;;6.93;;
46282;SDS011;32017;43.700;11.820;2023-04-01T03:27:50;7.30;;;6.97;;
46282;SDS011;32017;43.700;11.820;2023-04-01T03:30:10;8.82;;;8.10;;
46282;SDS011;32017;43.700;11.820;2023-04-01T03:32:30;8.45;;;8.07;;
46282;SDS011;32017;43.700;11.820;2023-04-01T03:34:51;7.25;;;7.13;;
46282;SDS011;32017;43.700;11.820;2023-04-01T03:37:11;6.63;;;6.47;;
46282;SDS011;32017;43.700;11.820;2023-04-01T03:39:31;7.93;;;7.53;;
46282;SDS011;32017;43.700;11.820;2023-04-01T03:41:52;7.75;;;7.47;;
46282;SDS011;32017;43.700;11.820;2023-04-01T03:44:12;9.02;;;8.75;;
46282;SDS011;32017;43.700;11.820;2023-04-01T03:46:32;7.20;;;6.88;;
46282;SDS011;32017;43.700;11.820;2023-04-01T03:48:53;8.45;;;8.15;;
46282;SDS011;32017;43.700;11.820;2023-04-01T03:51:13;8.05;;;7.85;;
46282;SDS011;32017;43.700;11.820;2023-04-01T03:53:33;7.43;;;7.13;;
46282;SDS011;32017;43.700;11.820;2023-04-01T03:55:53;8.00;;;7.80;;
46282;SDS011;32017;43.700;11.820;2023-04-01T03:58:14;9.35;;;8.77;;
46282;SDS011;32017;43.700;11.820;2023-04-01T04:00:35;9.48;;;9.10;;
46282;SDS011;32017;43.700;11.820;2023-04-01T04:02:55;8.80;;;8.52;;
46282;SDS011;32017;43.700;11.820;2023-04-01T04:05:15;7.97;;;7.78;;
46282;SDS011;32017;43.700;11.820;2023-04-01T04:07:36;12.25;;;8.60;;
46282;SDS011;32017;43.700;11.820;2023-04-01T04:09:56;8.88;;;8.60;;
46282;SDS011;32017;43.700;11.820;2023-04-01T04:12:16;7.88;;;7.60;;
46282;SDS011;32017;43.700;11.820;2023-04-01T04:14:36;8.63;;;8.43;;
46282;SDS011;32017;43.700;11.820;2023-04-01T04:16:57;9.05;;;8.85;;
46282;SDS011;32017;43.700;11.820;2023-04-01T04:19:17;7.00;;;6.90;;
46282;SDS011;32017;43.700;11.820;2023-04-01T04:21:38;8.48;;;8.27;;
46282;SDS011;32017;43.700;11.820;2023-04-01T04:24:02;8.95;;;8.77;;
46282;SDS011;32017;43.700;11.820;2023-04-01T04:26:22;8.13;;;7.97;;
46282;SDS011;32017;43.700;11.820;2023-04-01T04:28:42;8.70;;;8.30;;
46282;SDS011;32017;43.700;11.820;2023-04-01T04:31:02;9.35;;;9.25;;
46282;SDS011;32017;43.700;11.820;2023-04-01T04:33:25;9.05;;;8.88;;
46282;SDS011;32017;43.700;11.820;2023-04-01T04:35:45;7.75;;;7.55;;
46282;SDS011;32017;43.700;11.820;2023-04-01T04:38:05;8.10;;;8.00;;
46282;SDS011;32017;43.700;11.820;2023-04-01T04:40:25;8.45;;;8.27;;
46282;SDS011;32017;43.700;11.820;2023-04-01T04:42:46;8.82;;;8.52;;
46282;SDS011;32017;43.700;11.820;2023-04-01T04:45:06;10.30;;;9.77;;
46282;SDS011;32017;43.700;11.820;2023-04-01T04:47:27;112.53;;;12.85;;
46282;SDS011;32017;43.700;11.820;2023-04-01T04:49:47;200.02;;;16.20;;
46282;SDS011;32017;43.700;11.820;2023-04-01T04:52:07;52.92;;;11.50;;
46282;SDS011;32017;43.700;11.820;2023-04-01T04:54:27;449.75;;;26.10;;
46282;SDS011;32017;43.700;11.820;2023-04-01T04:56:48;323.85;;;21.00;;
46282;SDS011;32017;43.700;11.820;2023-04-01T04:59:08;139.38;;;16.52;;
46282;SDS011;32017;43.700;11.820;2023-04-01T05:01:28;11.02;;;10.73;;
46282;SDS011;32017;43.700;11.820;2023-04-01T05:03:49;55.88;;;12.57;;
46282;SDS011;32017;43.700;11.820;2023-04-01T05:06:11;73.75;;;12.10;;
46282;SDS011;32017;43.700;11.820;2023-04-01T05:08:32;118.70;;;12.32;;
46282;SDS011;32017;43.700;11.820;2023-04-01T05:10:53;113.28;;;13.43;;
46282;SDS011;32017;43.700;11.820;2023-04-01T05:13:13;109.80;;;12.50;;
46282;SDS011;32017;43.700;11.820;2023-04-01T05:15:34;241.52;;;18.35;;
46282;SDS011;32017;43.700;11.820;2023-04-01T05:17:54;173.10;;;13.10;;
46282;SDS011;32017;43.700;11.820;2023-04-01T05:20:15;342.13;;;21.95;;
46282;SDS011;32017;43.700;11.820;2023-04-01T05:22:35;227.88;;;15.98;;
46282;SDS011;32017;43.700;11.820;2023-04-01T05:24:55;229.18;;;17.42;;
46282;SDS011;32017;43.700;11.820;2023-04-01T05:27:15;382.70;;;22.52;;
46282;SDS011;32017;43.700;11.820;2023-04-01T05:29:36;9.88;;;8.88;;
46282;SDS011;32017;43.700;11.820;2023-04-01T05:31:56;110.00;;;13.25;;
46282;SDS011;32017;43.700;11.820;2023-04-01T05:34:16;156.70;;;13.90;;
46282;SDS011;32017;43.700;11.820;2023-04-01T05:36:37;155.52;;;13.10;;
46282;SDS011;32017;43.700;11.820;2023-04-01T05:38:57;144.45;;;12.10;;
46282;SDS011;32017;43.700;11.820;2023-04-01T05:41:17;117.25;;;10.40;;
46282;SDS011;32017;43.700;11.820;2023-04-01T05:43:37;124.75;;;12.48;;
46282;SDS011;32017;43.700;11.820;2023-04-01T05:45:57;9.50;;;9.07;;
46282;SDS011;32017;43.700;11.820;2023-04-01T05:48:18;85.10;;;11.32;;
46282;SDS011;32017;43.700;11.820;2023-04-01T05:50:39;76.05;;;14.02;;
46282;SDS011;32017;43.700;11.820;2023-04-01T05:53:00;13.50;;;12.50;;
46282;SDS011;32017;43.700;11.820;2023-04-01T05:55:20;56.45;;;17.33;;
46282;SDS011;32017;43.700;11.820;2023-04-01T05:57:41;282.23;;;25.50;;
46282;SDS011;32017;43.700;11.820;2023-04-01T06:00:00;379.10;;;25.02;;
46282;SDS011;32017;43.700;11.820;2023-04-01T06:02:21;327.75;;;22.67;;
46282;SDS011;32017;43.700;11.820;2023-04-01T06:04:41;303.98;;;21.90;;
46282;SDS011;32017;43.700;11.820;2023-04-01T06:07:04;222.80;;;15.90;;
46282;SDS011;32017;43.700;11.820;2023-04-01T06:16:58;115.95;;;13.48;;
46282;SDS011;32017;43.700;11.820;2023-04-01T06:24:12;34.85;;;9.55;;
46282;SDS011;32017;43.700;11.820;2023-04-01T06:29:17;90.90;;;11.27;;
46282;SDS011;32017;43.700;11.820;2023-04-01T06:31:46;32.90;;;9.55;;
46282;SDS011;32017;43.700;11.820;2023-04-01T06:34:21;10.52;;;10.15;;
46282;SDS011;32017;43.700;11.820;2023-04-01T06:40:03;12.90;;;11.38;;
46282;SDS011;32017;43.700;11.820;2023-04-01T06:49:16;13.98;;;12.52;;
46282;SDS011;32017;43.700;11.820;2023-04-01T06:51:45;12.45;;;11.45;;
46282;SDS011;32017;43.700;11.820;2023-04-01T06:56:30;13.57;;;12.75;;
46282;SDS011;32017;43.700;11.820;2023-04-01T07:01:22;12.32;;;11.68;;
46282;SDS011;32017;43.700;11.820;2023-04-01T07:03:54;11.80;;;11.20;;
46282;SDS011;32017;43.700;11.820;2023-04-01T07:06:19;14.02;;;13.18;;
46282;SDS011;32017;43.700;11.820;2023-04-01T07:08:43;13.57;;;12.73;;
46282;SDS011;32017;43.700;11.820;2023-04-01T07:11:05;13.32;;;12.52;;
46282;SDS011;32017;43.700;11.820;2023-04-01T07:13:36;14.48;;;13.57;;
46282;SDS011;32017;43.700;11.820;2023-04-01T07:16:20;13.43;;;12.63;;
46282;SDS011;32017;43.700;11.820;2023-04-01T07:18:46;12.15;;;11.45;;
46282;SDS011;32017;43.700;11.820;2023-04-01T07:21:10;11.75;;;11.20;;
46282;SDS011;32017;43.700;11.820;2023-04-01T07:23:36;11.40;;;10.85;;
46282;SDS011;32017;43.700;11.820;2023-04-01T07:26:00;11.02;;;10.48;;
46282;SDS011;32017;43.700;11.820;2023-04-01T07:28:20;11.82;;;11.25;;
46282;SDS011;32017;43.700;11.820;2023-04-01T07:33:39;15.95;;;14.85;;
46282;SDS011;32017;43.700;11.820;2023-04-01T07:36:07;16.55;;;15.30;;
46282;SDS011;32017;43.700;11.820;2023-04-01T07:50:41;11.85;;;11.05;;
46282;SDS011;32017;43.700;11.820;2023-04-01T07:55:28;11.35;;;10.85;;
46282;SDS011;32017;43.700;11.820;2023-04-01T08:00:21;8.25;;;8.05;;
46282;SDS011;32017;43.700;11.820;2023-04-01T08:05:24;8.40;;;8.10;;
46282;SDS011;32017;43.700;11.820;2023-04-01T08:10:28;6.68;;;6.47;;
46282;SDS011;32017;43.700;11.820;2023-04-01T08:17:42;5.85;;;5.75;;
46282;SDS011;32017;43.700;11.820;2023-04-01T08:20:17;6.05;;;5.75;;
46282;SDS011;32017;43.700;11.820;2023-04-01T08:22:42;4.38;;;4.28;;
46282;SDS011;32017;43.700;11.820;2023-04-01T08:25:05;5.32;;;4.90;;
46282;SDS011;32017;43.700;11.820;2023-04-01T08:29:51;12.30;;;7.90;;
46282;SDS011;32017;43.700;11.820;2023-04-01T08:32:20;7.25;;;6.68;;
46282;SDS011;32017;43.700;11.820;2023-04-01T08:34:42;5.53;;;5.30;;
46282;SDS011;32017;43.700;11.820;2023-04-01T08:37:09;9.13;;;6.70;;
46282;SDS011;32017;43.700;11.820;2023-04-01T08:49:36;6.40;;;6.10;;
46282;SDS011;32017;43.700;11.820;2023-04-01T09:25:31;3.63;;;2.33;;
46282;SDS011;32017;43.700;11.820;2023-04-01T09:45:00;2.65;;;2.15;;
46282;SDS011;32017;43.700;11.820;2023-04-01T09:57:05;3.17;;;1.83;;
46282;SDS011;32017;43.700;11.820;2023-04-01T10:04:47;3.67;;;1.92;;
46282;SDS011;32017;43.700;11.820;2023-04-01T10:12:25;3.03;;;2.83;;
46282;SDS011;32017;43.700;11.820;2023-04-01T10:35:08;3.45;;;1.73;;
46282;SDS011;32017;43.700;11.820;2023-04-01T10:49:44;2.67;;;1.45;;
46282;SDS011;32017;43.700;11.820;2023-04-01T11:01:58;1.67;;;1.20;;
46282;SDS011;32017;43.700;11.820;2023-04-01T11:04:37;1.40;;;1.40;;
46282;SDS011;32017;43.700;11.820;2023-04-01T11:24:37;1.17;;;1.08;;
46282;SDS011;32017;43.700;11.820;2023-04-01T11:30:10;1.38;;;1.10;;
46282;SDS011;32017;43.700;11.820;2023-04-01T11:32:39;1.15;;;1.00;;
46282;SDS011;32017;43.700;11.820;2023-04-01T11:42:23;2.15;;;1.20;;
46282;SDS011;32017;43.700;11.820;2023-04-01T11:52:30;1.50;;;1.00;;
46282;SDS011;32017;43.700;11.820;2023-04-01T11:59:49;1.27;;;1.27;;
46282;SDS011;32017;43.700;11.820;2023-04-01T12:04:58;2.45;;;1.52;;
46282;SDS011;32017;43.700;11.820;2023-04-01T12:12:20;3.08;;;1.02;;
46282;SDS011;32017;43.700;11.820;2023-04-01T12:25:13;2.25;;;1.30;;
46282;SDS011;32017;43.700;11.820;2023-04-01T12:34:44;5.85;;;3.90;;
46282;SDS011;32017;43.700;11.820;2023-04-01T12:47:30;2.47;;;1.33;;
46282;SDS011;32017;43.700;11.820;2023-04-01T12:57:47;3.10;;;1.58;;
46282;SDS011;32017;43.700;11.820;2023-04-01T13:10:00;1.77;;;1.15;;
46282;SDS011;32017;43.700;11.820;2023-04-01T13:14:59;7.25;;;4.35;;
46282;SDS011;32017;43.700;11.820;2023-04-01T13:22:51;1.45;;;1.40;;
46282;SDS011;32017;43.700;11.820;2023-04-01T13:28:29;3.92;;;1.65;;
46282;SDS011;32017;43.700;11.820;2023-04-01T13:36:10;1.73;;;1.63;;
46282;SDS011;32017;43.700;11.820;2023-04-01T13:38:39;1.60;;;1.50;;
46282;SDS011;32017;43.700;11.820;2023-04-01T13:48:29;2.30;;;1.10;;
46282;SDS011;32017;43.700;11.820;2023-04-01T13:56:43;1.15;;;1.00;;
46282;SDS011;32017;43.700;11.820;2023-04-01T13:58:38;1.77;;;1.20;;
46282;SDS011;32017;43.700;11.820;2023-04-01T14:06:09;4.55;;;1.17;;
46282;SDS011;32017;43.700;11.820;2023-04-01T14:11:50;1.42;;;1.20;;
46282;SDS011;32017;43.700;11.820;2023-04-01T14:23:54;1.50;;;1.08;;
46282;SDS011;32017;43.700;11.820;2023-04-01T14:28:47;2.47;;;1.10;;
46282;SDS011;32017;43.700;11.820;2023-04-01T14:33:57;2.97;;;1.30;;
46282;SDS011;32017;43.700;11.820;2023-04-01T14:38:51;3.85;;;1.75;;
46282;SDS011;32017;43.700;11.820;2023-04-01T14:41:19;5.05;;;1.88;;
46282;SDS011;32017;43.700;11.820;2023-04-01T14:46:22;5.50;;;1.75;;
46282;SDS011;32017;43.700;11.820;2023-04-01T14:48:49;2.90;;;1.73;;
46282;SDS011;32017;43.700;11.820;2023-04-01T14:51:32;3.90;;;1.83;;
46282;SDS011;32017;43.700;11.820;2023-04-01T14:54:12;2.85;;;2.17;;
46282;SDS011;32017;43.700;11.820;2023-04-01T14:56:36;3.83;;;2.05;;
46282;SDS011;32017;43.700;11.820;2023-04-01T14:58:57;2.30;;;2.10;;
46282;SDS011;32017;43.700;11.820;2023-04-01T15:08:58;2.97;;;1.48;;
46282;SDS011;32017;43.700;11.820;2023-04-01T15:11:27;2.35;;;1.30;;
46282;SDS011;32017;43.700;11.820;2023-04-01T15:18:56;3.83;;;1.48;;
46282;SDS011;32017;43.700;11.820;2023-04-01T15:21:26;5.90;;;1.42;;
46282;SDS011;32017;43.700;11.820;2023-04-01T15:26:17;2.20;;;1.20;;
46282;SDS011;32017;43.700;11.820;2023-04-01T15:45:56;1.42;;;1.20;;
46282;SDS011;32017;43.700;11.820;2023-04-01T15:48:25;3.10;;;2.03;;
46282;SDS011;32017;43.700;11.820;2023-04-01T15:53:18;4.10;;;1.75;;
46282;SDS011;32017;43.700;11.820;2023-04-01T16:05:52;3.28;;;1.83;;
46282;SDS011;32017;43.700;11.820;2023-04-01T16:10:57;2.10;;;1.83;;
46282;SDS011;32017;43.700;11.820;2023-04-01T16:13:27;1.48;;;1.35;;
46282;SDS011;32017;43.700;11.820;2023-04-01T16:15:59;2.60;;;1.90;;
46282;SDS011;32017;43.700;11.820;2023-04-01T16:23:48;4.05;;;2.40;;
46282;SDS011;32017;43.700;11.820;2023-04-01T16:26:15;4.45;;;1.88;;
46282;SDS011;32017;43.700;11.820;2023-04-01T16:28:54;2.58;;;1.67;;
46282;SDS011;32017;43.700;11.820;2023-04-01T16:33:47;4.72;;;2.60;;
46282;SDS011;32017;43.700;11.820;2023-04-01T16:36:20;4.93;;;2.28;;
46282;SDS011;32017;43.700;11.820;2023-04-01T16:41:31;7.00;;;4.43;;
46282;SDS011;32017;43.700;11.820;2023-04-01T16:44:26;3.03;;;2.80;;
46282;SDS011;32017;43.700;11.820;2023-04-01T16:47:12;5.93;;;5.35;;
46282;SDS011;32017;43.700;11.820;2023-04-01T16:49:30;6.55;;;2.38;;
46282;SDS011;32017;43.700;11.820;2023-04-01T16:54:33;2.58;;;2.17;;
46282;SDS011;32017;43.700;11.820;2023-04-01T16:57:01;4.22;;;3.20;;
46282;SDS011;32017;43.700;11.820;2023-04-01T16:59:24;3.10;;;2.88;;
46282;SDS011;32017;43.700;11.820;2023-04-01T17:01:57;5.38;;;3.33;;
46282;SDS011;32017;43.700;11.820;2023-04-01T17:06:56;2.63;;;2.00;;
46282;SDS011;32017;43.700;11.820;2023-04-01T17:10:25;2.95;;;2.75;;
46282;SDS011;32017;43.700;11.820;2023-04-01T17:14:50;3.67;;;3.05;;
46282;SDS011;32017;43.700;11.820;2023-04-01T17:17:28;3.05;;;2.75;;
46282;SDS011;32017;43.700;11.820;2023-04-01T17:30:03;2.40;;;2.20;;
46282;SDS011;32017;43.700;11.820;2023-04-01T17:33:00;3.97;;;2.67;;
46282;SDS011;32017;43.700;11.820;2023-04-01T17:40:25;6.43;;;2.78;;
46282;SDS011;32017;43.700;11.820;2023-04-01T17:50:47;10.95;;;4.85;;
46282;SDS011;32017;43.700;11.820;2023-04-01T18:03:50;6.95;;;6.22;;
46282;SDS011;32017;43.700;11.820;2023-04-01T18:18:39;6.05;;;4.05;;
46282;SDS011;32017;43.700;11.820;2023-04-01T18:23:45;5.28;;;3.95;;
46282;SDS011;32017;43.700;11.820;2023-04-01T18:26:21;4.00;;;3.75;;
46282;SDS011;32017;43.700;11.820;2023-04-01T18:28:50;7.53;;;4.13;;
46282;SDS011;32017;43.700;11.820;2023-04-01T18:31:17;5.13;;;3.83;;
46282;SDS011;32017;43.700;11.820;2023-04-01T18:38:35;9.68;;;3.88;;
46282;SDS011;32017;43.700;11.820;2023-04-01T18:43:29;5.35;;;2.72;;
46282;SDS011;32017;43.700;11.820;2023-04-01T18:46:00;11.93;;;3.88;;
46282;SDS011;32017;43.700;11.820;2023-04-01T18:48:37;5.53;;;3.78;;
46282;SDS011;32017;43.700;11.820;2023-04-01T18:53:44;9.57;;;4.85;;
46282;SDS011;32017;43.700;11.820;2023-04-01T18:56:08;8.98;;;5.55;;
46282;SDS011;32017;43.700;11.820;2023-04-01T18:58:42;5.68;;;3.38;;
46282;SDS011;32017;43.700;11.820;2023-04-01T19:06:14;7.25;;;3.60;;
46282;SDS011;32017;43.700;11.820;2023-04-01T19:08:38;11.40;;;6.88;;
46282;SDS011;32017;43.700;11.820;2023-04-01T19:11:33;12.07;;;7.10;;
46282;SDS011;32017;43.700;11.820;2023-04-01T19:19:20;7.18;;;6.40;;
46282;SDS011;32017;43.700;11.820;2023-04-01T19:26:40;11.40;;;5.70;;
46282;SDS011;32017;43.700;11.820;2023-04-01T19:31:50;5.63;;;3.80;;
46282;SDS011;32017;43.700;11.820;2023-04-01T19:36:39;10.35;;;4.10;;
46282;SDS011;32017;43.700;11.820;2023-04-01T19:46:34;9.60;;;6.32;;
46282;SDS011;32017;43.700;11.820;2023-04-01T19:56:15;10.77;;;7.63;;
46282;SDS011;32017;43.700;11.820;2023-04-01T19:58:40;8.45;;;6.82;;
46282;SDS011;32017;43.700;11.820;2023-04-01T20:01:03;19.55;;;9.77;;
46282;SDS011;32017;43.700;11.820;2023-04-01T20:05:50;7.65;;;6.90;;
46282;SDS011;32017;43.700;11.820;2023-04-01T20:17:47;6.93;;;4.90;;
46282;SDS011;32017;43.700;11.820;2023-04-01T20:24:57;7.75;;;4.40;;
46282;SDS011;32017;43.700;11.820;2023-04-01T20:27:20;5.40;;;3.58;;
46282;SDS011;32017;43.700;11.820;2023-04-01T20:29:41;7.57;;;4.45;;
46282;SDS011;32017;43.700;11.820;2023-04-01T20:32:10;7.55;;;5.18;;
46282;SDS011;32017;43.700;11.820;2023-04-01T20:37:29;9.13;;;6.03;;
46282;SDS011;32017;43.700;11.820;2023-04-01T20:42:34;6.85;;;5.45;;
46282;SDS011;32017;43.700;11.820;2023-04-01T20:49:59;7.22;;;6.63;;
46282;SDS011;32017;43.700;11.820;2023-04-01T20:52:31;18.05;;;7.22;;
46282;SDS011;32017;43.700;11.820;2023-04-01T21:04:44;10.05;;;9.05;;
46282;SDS011;32017;43.700;11.820;2023-04-01T21:09:53;11.63;;;7.05;;
46282;SDS011;32017;43.700;11.820;2023-04-01T21:12:21;11.95;;;4.80;;
46282;SDS011;32017;43.700;11.820;2023-04-01T21:27:13;8.55;;;5.90;;
46282;SDS011;32017;43.700;11.820;2023-04-01T21:29:40;8.48;;;5.00;;
46282;SDS011;32017;43.700;11.820;2023-04-01T21:32:30;12.18;;;7.05;;
46282;SDS011;32017;43.700;11.820;2023-04-01T21:50:06;8.25;;;3.97;;
46282;SDS011;32017;43.700;11.820;2023-04-01T22:03:00;6.78;;;5.85;;
46282;SDS011;32017;43.700;11.820;2023-04-01T22:07:59;5.72;;;5.25;;
46282;SDS011;32017;43.700;11.820;2023-04-01T22:10:27;17.65;;;7.57;;
46282;SDS011;32017;43.700;11.820;2023-04-01T22:12:58;13.45;;;7.53;;
46282;SDS011;32017;43.700;11.820;2023-04-01T22:15:29;15.43;;;6.78;;
46282;SDS011;32017;43.700;11.820;2023-04-01T22:17:54;8.88;;;6.90;;
46282;SDS011;32017;43.700;11.820;2023-04-01T22:20:28;13.07;;;6.40;;
46282;SDS011;32017;43.700;11.820;2023-04-01T22:23:01;12.20;;;8.15;;
46282;SDS011;32017;43.700;11.820;2023-04-01T22:32:43;13.20;;;7.13;;
46282;SDS011;32017;43.700;11.820;2023-04-01T22:35:13;17.10;;;6.57;;
46282;SDS011;32017;43.700;11.820;2023-04-01T22:40:25;12.38;;;5.30;;
46282;SDS011;32017;43.700;11.820;2023-04-01T22:42:46;10.70;;;8.23;;
46282;SDS011;32017;43.700;11.820;2023-04-01T22:52:47;10.52;;;6.18;;
46282;SDS011;32017;43.700;11.820;2023-04-01T22:55:13;19.63;;;7.55;;
46282;SDS011;32017;43.700;11.820;2023-04-01T22:57:36;8.20;;;6.63;;
46282;SDS011;32017;43.700;11.820;2023-04-01T23:03:01;12.85;;;5.53;;
46282;SDS011;32017;43.700;11.820;2023-04-01T23:05:24;11.38;;;5.90;;
46282;SDS011;32017;43.700;11.820;2023-04-01T23:08:04;12.90;;;5.00;;
46282;SDS011;32017;43.700;11.820;2023-04-01T23:10:28;12.18;;;7.55;;
46282;SDS011;32017;43.700;11.820;2023-04-01T23:12:51;17.02;;;7.50;;
46282;SDS011;32017;43.700;11.820;2023-04-01T23:15:13;11.57;;;7.28;;
46282;SDS011;32017;43.700;11.820;2023-04-01T23:19:57;9.05;;;7.10;;
46282;SDS011;32017;43.700;11.820;2023-04-01T23:27:11;10.43;;;5.82;;
46282;SDS011;32017;43.700;11.820;2023-04-01T23:29:36;9.32;;;5.07;;
46282;SDS011;32017;43.700;11.820;2023-04-01T23:32:02;10.43;;;5.47;;
46282;SDS011;32017;43.700;11.820;2023-04-01T23:34:24;12.32;;;6.22;;
46282;SDS011;32017;43.700;11.820;2023-04-01T23:36:53;12.95;;;6.10;;
46282;SDS011;32017;43.700;11.820;2023-04-01T23:41:40;15.90;;;5.72;;
46282;SDS011;32017;43.700;11.820;2023-04-01T23:44:02;15.27;;;6.00;;
46282;SDS011;32017;43.700;11.820;2023-04-01T23:46:23;12.30;;;5.78;;
46282;SDS011;32017;43.700;11.820;2023-04-01T23:48:44;6.50;;;4.97;;
46282;SDS011;32017;43.700;11.820;2023-04-01T23:51:12;13.47;;;6.27;;
46282;SDS011;32017;43.700;11.820;2023-04-01T23:53:33;11.85;;;6.35;;
46282;SDS011;32017;43.700;11.820;2023-04-01T23:55:54;9.40;;;5.45;;
46282;SDS011;32017;43.700;11.820;2023-04-01T23:58:22;12.70;;;5.60;;
